Time;durP1;ratioP1;P1;durP2;ratioP2;P2;SDS_P1;SDS_P2;PMS_P1;PMS_P2;Temp;Humidity;BMP_temperature;BMP_pressure;BME280_temperature;BME280_humidity;BME280_pressure;Samples;Min_cycle;Max_cycle;Signal;HPM_P1;HPM_P2
2023/05/07 00:00:07;;;;;;;8.77;5.00;;;;;;;15.09;73.30;99966.88;3119089;28;20054;-68
2023/05/07 00:01:41;;;;;;;6.15;4.53;;;;;;;15.20;73.44;99976.72;3089651;28;20050;-68
2023/05/07 00:03:13;;;;;;;14.98;5.18;;;;;;;15.20;73.68;99980.19;3089625;28;20054;-67
2023/05/07 00:04:45;;;;;;;9.13;5.23;;;;;;;15.16;74.13;99973.44;3089957;28;20058;-67
2023/05/07 00:06:17;;;;;;;10.88;5.47;;;;;;;15.14;74.03;99975.28;3089658;28;20476;-68
2023/05/07 00:07:48;;;;;;;11.35;4.88;;;;;;;15.17;74.35;99977.75;3089549;28;20054;-68
2023/05/07 00:09:20;;;;;;;7.63;5.05;;;;;;;15.17;74.69;99975.13;3089830;28;20455;-68
2023/05/07 00:10:51;;;;;;;9.25;5.18;;;;;;;15.17;74.66;99972.50;3089840;28;20069;-68
2023/05/07 00:12:23;;;;;;;13.15;4.78;;;;;;;15.20;74.50;99974.94;3079448;28;20054;-68
2023/05/07 00:13:54;;;;;;;8.88;5.20;;;;;;;15.21;74.72;99963.50;3089601;28;20446;-68
2023/05/07 00:15:26;;;;;;;7.45;4.72;;;;;;;15.21;74.58;99955.63;3089817;28;20122;-68
2023/05/07 00:16:58;;;;;;;9.43;4.50;;;;;;;15.23;74.67;99961.66;3089685;28;20058;-68
2023/05/07 00:18:30;;;;;;;7.32;4.55;;;;;;;15.24;74.82;99968.56;3089600;28;20157;-68
2023/05/07 00:20:03;;;;;;;6.43;4.50;;;;;;;15.25;74.79;99964.16;3089706;28;20062;-68
2023/05/07 00:21:35;;;;;;;7.18;4.90;;;;;;;15.19;75.00;99960.13;3089443;28;20077;-68
2023/05/07 00:23:06;;;;;;;9.15;4.13;;;;;;;15.23;74.74;99966.88;3089502;28;20054;-68
2023/05/07 00:24:37;;;;;;;8.60;4.30;;;;;;;15.24;74.48;99970.34;3089153;28;20583;-68
2023/05/07 00:26:09;;;;;;;7.05;4.57;;;;;;;15.19;74.66;99962.75;3088994;28;20054;-68
2023/05/07 00:27:41;;;;;;;8.48;4.45;;;;;;;15.17;74.60;99956.78;3089758;28;20066;-68
2023/05/07 00:29:13;;;;;;;10.07;4.65;;;;;;;15.24;74.37;99967.72;3089261;28;20143;-68
2023/05/07 00:30:45;;;;;;;6.55;4.28;;;;;;;15.13;74.01;99950.00;3089468;28;20070;-68
2023/05/07 00:32:18;;;;;;;7.50;3.92;;;;;;;15.23;74.13;99966.88;3089558;28;20062;-68
2023/05/07 00:33:50;;;;;;;9.68;4.30;;;;;;;15.22;74.11;99959.09;3089694;28;20057;-68
2023/05/07 00:35:22;;;;;;;6.90;4.13;;;;;;;15.20;73.76;99960.97;3089267;28;20057;-68
2023/05/07 00:36:54;;;;;;;9.32;3.90;;;;;;;15.23;73.08;99966.03;3089174;28;20050;-68
2023/05/07 00:38:26;;;;;;;6.57;3.95;;;;;;;15.24;72.95;99967.72;3089249;28;20130;-68
2023/05/07 00:39:56;;;;;;;8.13;3.88;;;;;;;15.24;72.83;99965.09;3089196;28;20054;-68
2023/05/07 00:41:29;;;;;;;10.50;4.05;;;;;;;15.24;72.68;99970.34;3089262;28;20061;-68
2023/05/07 00:43:02;;;;;;;;;;;;;;;15.14;72.58;99970.06;3089802;28;20640;-68
2023/05/07 00:44:34;;;;;;;6.35;3.80;;;;;;;15.17;72.56;99977.75;3089325;28;19983;-67
2023/05/07 00:46:06;;;;;;;6.32;3.65;;;;;;;15.19;72.26;99975.88;3089496;28;20081;-68
2023/05/07 00:47:39;;;;;;;7.25;4.00;;;;;;;15.20;71.89;99972.31;3089199;28;20539;-68
2023/05/07 00:49:11;;;;;;;7.35;3.70;;;;;;;15.19;71.43;99967.16;3089168;28;20054;-68
2023/05/07 00:50:43;;;;;;;7.38;4.30;;;;;;;15.19;71.61;99972.41;3088349;28;20055;-68
2023/05/07 00:52:17;;;;;;;8.30;4.20;;;;;;;15.17;71.38;99966.41;3089182;28;20054;-68
2023/05/07 00:53:48;;;;;;;7.07;4.43;;;;;;;15.17;71.39;99969.91;3123283;28;20055;-68
2023/05/07 00:55:21;;;;;;;8.55;4.28;;;;;;;15.19;71.49;99973.25;3107926;28;20468;-68
2023/05/07 00:56:53;;;;;;;8.27;4.32;;;;;;;15.17;71.60;99971.66;3089203;28;20072;-68
2023/05/07 00:58:25;;;;;;;6.75;3.60;;;;;;;15.15;71.58;99968.31;3089112;28;20062;-68
2023/05/07 00:59:57;;;;;;;6.25;3.50;;;;;;;15.19;71.32;99978.50;3088988;28;20054;-67
2023/05/07 01:01:29;;;;;;;7.60;3.78;;;;;;;15.13;71.02;99968.38;3088932;28;20590;-68
2023/05/07 01:03:02;;;;;;;8.60;3.83;;;;;;;15.17;71.00;99976.91;3089041;28;20061;-68
2023/05/07 01:04:35;;;;;;;12.30;3.95;;;;;;;15.13;70.90;99975.41;3089071;28;20962;-68
2023/05/07 01:06:08;;;;;;;9.25;3.95;;;;;;;15.12;70.90;99978.97;3089049;28;20046;-68
2023/05/07 01:07:40;;;;;;;10.93;4.00;;;;;;;15.08;70.88;99969.59;3088897;28;20065;-68
2023/05/07 01:09:13;;;;;;;8.98;3.70;;;;;;;14.81;70.69;99933.63;3089322;28;20141;-68
2023/05/07 01:10:45;;;;;;;9.32;3.70;;;;;;;15.11;70.41;99978.09;3089087;28;20127;-67
2023/05/07 01:12:17;;;;;;;7.95;3.88;;;;;;;15.11;70.63;99975.50;3079033;28;20051;-68
2023/05/07 01:13:51;;;;;;;5.72;3.42;;;;;;;15.11;70.58;99980.72;3089059;28;20093;-67
2023/05/07 01:15:22;;;;;;;8.35;4.05;;;;;;;14.99;70.31;99953.47;3089295;28;20527;-68
2023/05/07 01:16:55;;;;;;;8.18;4.43;;;;;;;15.09;70.50;99974.75;3088887;28;20444;-68
2023/05/07 01:18:29;;;;;;;7.53;4.40;;;;;;;15.10;70.26;99976.44;3089177;28;20054;-68
2023/05/07 01:20:01;;;;;;;9.60;4.30;;;;;;;15.12;70.44;99969.31;3088719;28;20096;-68
2023/05/07 01:21:35;;;;;;;9.75;3.83;;;;;;;15.12;70.42;99984.22;3088629;28;20054;-68
2023/05/07 01:23:08;;;;;;;;;;;;;;;15.01;70.20;99980.47;3088971;28;20050;-68
2023/05/07 01:24:38;;;;;;;7.50;3.90;;;;;;;14.96;70.52;99965.94;3133329;28;19923;-67
2023/05/07 01:26:10;;;;;;;6.43;3.95;;;;;;;14.99;70.55;99971.00;3112109;28;20057;-68
2023/05/07 01:27:41;;;;;;;8.27;4.40;;;;;;;14.98;70.56;99961.44;3088982;28;20104;-69
2023/05/07 01:29:13;;;;;;;8.73;3.85;;;;;;;15.01;70.76;99972.59;3088888;28;20159;-68
2023/05/07 01:30:47;;;;;;;8.98;3.95;;;;;;;15.02;70.61;99974.28;3088572;28;20065;-67
2023/05/07 01:32:23;;;;;;;8.48;4.43;;;;;;;15.01;70.63;99969.13;3089051;28;20042;-68
2023/05/07 01:33:57;;;;;;;9.30;4.53;;;;;;;15.02;70.50;99971.69;3088925;28;20058;-68
2023/05/07 01:35:35;;;;;;;7.78;3.75;;;;;;;15.04;70.61;99973.34;3088694;28;20081;-68
2023/05/07 01:37:07;;;;;;;9.13;4.10;;;;;;;14.99;70.78;99969.22;3089014;28;20066;-68
2023/05/07 01:38:42;;;;;;;7.00;4.55;;;;;;;15.05;70.58;99965.38;3088863;28;20050;-68
2023/05/07 01:40:14;;;;;;;7.00;3.90;;;;;;;15.00;70.72;99960.44;3088740;28;20141;-68
2023/05/07 01:41:47;;;;;;;8.17;3.90;;;;;;;15.07;70.40;99976.63;3088812;28;20086;-68
2023/05/07 01:43:20;;;;;;;13.03;4.53;;;;;;;15.07;70.65;99971.38;3088529;28;20320;-68
2023/05/07 01:44:50;;;;;;;11.23;4.47;;;;;;;15.04;70.64;99966.31;3088882;28;20793;-67
2023/05/07 01:46:23;;;;;;;10.02;4.25;;;;;;;15.06;70.45;99956.59;3088860;28;20061;-68
2023/05/07 01:47:56;;;;;;;8.48;4.00;;;;;;;15.12;70.13;99964.06;3088631;28;20061;-68
2023/05/07 01:49:28;;;;;;;7.97;4.50;;;;;;;15.04;70.38;99945.34;3087899;28;20054;-68
2023/05/07 01:51:01;;;;;;;8.43;5.00;;;;;;;15.14;70.22;99966.59;3077019;28;20051;-68
2023/05/07 01:52:33;;;;;;;6.63;3.95;;;;;;;15.15;70.22;99965.69;3088426;28;20054;-68
2023/05/07 01:54:08;;;;;;;5.90;4.18;;;;;;;15.14;70.06;99964.81;3134553;28;20056;-68
2023/05/07 01:55:40;;;;;;;6.57;4.18;;;;;;;15.15;70.23;99965.69;3090870;28;20150;-68
2023/05/07 01:57:11;;;;;;;10.55;3.92;;;;;;;15.17;70.29;99972.50;3083885;28;20081;-68
2023/05/07 01:58:42;;;;;;;9.13;4.00;;;;;;;15.21;70.30;99974.00;3083736;28;20063;-68
2023/05/07 02:00:15;;;;;;;9.60;5.07;;;;;;;15.21;70.37;99967.91;3083616;28;20578;-68
2023/05/07 02:01:47;;;;;;;7.55;4.35;;;;;;;15.21;70.26;99962.66;3085113;28;20058;-68
2023/05/07 02:03:18;;;;;;;7.70;4.10;;;;;;;15.21;70.29;99971.38;3086050;28;20050;-68
2023/05/07 02:04:50;;;;;;;8.75;3.95;;;;;;;15.21;70.27;99976.63;3086038;28;20054;-68
2023/05/07 02:06:21;;;;;;;7.45;4.40;;;;;;;15.21;70.33;99973.16;3087576;28;20275;-68
2023/05/07 02:07:53;;;;;;;8.15;4.35;;;;;;;15.18;69.93;99958.44;3087144;28;20428;-67
2023/05/07 02:09:26;;;;;;;9.07;4.35;;;;;;;15.17;69.82;99958.53;3107507;28;20517;-68
2023/05/07 02:10:58;;;;;;;10.07;4.80;;;;;;;15.10;70.33;99965.09;3090377;28;20053;-68
2023/05/07 02:12:30;;;;;;;7.68;4.10;;;;;;;15.13;70.43;99965.75;3081396;28;20396;-68
2023/05/07 02:14:02;;;;;;;6.95;4.57;;;;;;;15.14;70.45;99967.44;3090733;28;20054;-67
2023/05/07 02:15:33;;;;;;;10.60;4.85;;;;;;;15.12;70.72;99963.25;3090685;28;20648;-67
2023/05/07 02:17:04;;;;;;;7.28;4.68;;;;;;;15.14;71.04;99966.59;3090524;28;20058;-67
2023/05/07 02:18:35;;;;;;;9.73;4.18;;;;;;;15.13;71.01;99959.66;3089771;28;20061;-68
2023/05/07 02:20:13;;;;;;;5.82;3.92;;;;;;;15.12;71.24;99960.63;3090659;28;20054;-67
2023/05/07 02:21:44;;;;;;;10.43;4.97;;;;;;;15.06;71.17;99959.22;3090684;28;20635;-69
2023/05/07 02:23:16;;;;;;;8.90;4.95;;;;;;;15.07;71.42;99955.63;3089713;28;20065;-68
2023/05/07 02:24:49;;;;;;;7.47;4.57;;;;;;;15.11;71.18;99962.38;3090527;28;20050;-68
2023/05/07 02:26:22;;;;;;;8.40;4.55;;;;;;;15.05;71.23;99960.13;3090629;28;20586;-68
2023/05/07 02:27:53;;;;;;;9.33;5.10;;;;;;;15.04;71.29;99965.47;3090688;28;20263;-68
2023/05/07 02:29:25;;;;;;;7.25;5.03;;;;;;;15.01;71.13;99959.47;3090340;28;20185;-68
2023/05/07 02:30:58;;;;;;;9.50;5.18;;;;;;;14.99;71.61;99963.13;3089718;28;20065;-69
2023/05/07 02:32:30;;;;;;;12.35;5.50;;;;;;;14.95;71.37;99965.09;3090829;28;20050;-68
2023/05/07 02:34:02;;;;;;;11.00;5.07;;;;;;;14.92;71.84;99957.41;3090549;28;20047;-68
2023/05/07 02:35:33;;;;;;;6.90;4.65;;;;;;;14.87;71.83;99958.63;3090322;28;20177;-68
2023/05/07 02:37:04;;;;;;;8.82;4.88;;;;;;;14.87;71.75;99956.00;3090574;28;20508;-68
2023/05/07 02:38:36;;;;;;;9.32;4.95;;;;;;;14.82;72.20;99956.31;3090494;28;20250;-68
2023/05/07 02:40:12;;;;;;;12.15;5.30;;;;;;;14.81;72.10;99956.38;3090350;28;20440;-68
2023/05/07 02:41:43;;;;;;;13.70;5.72;;;;;;;14.80;72.05;99958.16;3090443;28;20058;-68
2023/05/07 02:43:15;;;;;;;7.10;4.68;;;;;;;14.79;72.40;99966.97;3090555;28;20065;-67
2023/05/07 02:44:47;;;;;;;8.65;4.90;;;;;;;14.78;72.30;99960.03;3090436;28;20058;-67
2023/05/07 02:46:19;;;;;;;9.85;5.15;;;;;;;14.76;72.51;99962.75;3090226;28;20583;-68
2023/05/07 02:47:51;;;;;;;11.15;4.90;;;;;;;14.75;72.35;99960.22;3090346;28;20050;-68
2023/05/07 02:49:23;;;;;;;11.75;5.70;;;;;;;14.74;72.36;99959.38;3090389;28;20099;-68
2023/05/07 02:50:55;;;;;;;10.38;5.63;;;;;;;14.73;72.49;99956.81;3090349;28;20058;-68
2023/05/07 02:52:27;;;;;;;8.90;5.32;;;;;;;14.69;72.58;99947.47;3090245;28;20054;-69
2023/05/07 02:54:00;;;;;;;8.15;5.15;;;;;;;14.66;72.41;99947.66;3131606;28;20052;-68
2023/05/07 02:55:32;;;;;;;;;;;;;;;14.58;72.21;99953.34;3099959;28;20123;-69
2023/05/07 02:57:04;;;;;;;8.55;4.88;;;;;;;14.58;72.88;99955.97;3090245;28;20441;-69
2023/05/07 02:58:36;;;;;;;11.10;5.45;;;;;;;14.57;72.87;99956.91;3090217;28;20504;-68
2023/05/07 03:00:12;;;;;;;9.35;5.80;;;;;;;14.33;73.13;99910.22;3090057;28;20058;-68
2023/05/07 03:01:45;;;;;;;8.80;5.75;;;;;;;14.55;73.18;99949.16;3086316;28;20050;-68
2023/05/07 03:03:16;;;;;;;14.73;6.20;;;;;;;14.52;73.13;99945.84;3089913;28;20048;-68
2023/05/07 03:04:47;;;;;;;12.73;6.03;;;;;;;14.48;73.62;99941.69;3090207;28;20494;-68
2023/05/07 03:06:19;;;;;;;11.93;6.32;;;;;;;14.49;73.79;99951.22;3090152;28;20058;-68
2023/05/07 03:07:50;;;;;;;10.45;5.90;;;;;;;14.47;74.00;99946.09;3090128;28;20557;-69
2023/05/07 03:09:22;;;;;;;13.88;5.72;;;;;;;14.45;73.74;99949.75;3090279;28;20050;-68
2023/05/07 03:10:55;;;;;;;10.88;6.50;;;;;;;14.26;74.01;99921.16;3090228;28;20050;-68
2023/05/07 03:12:27;;;;;;;8.98;6.47;;;;;;;14.41;74.53;99949.09;3080936;28;20050;-69
2023/05/07 03:13:59;;;;;;;12.48;6.38;;;;;;;14.32;74.39;99933.91;3089311;28;20054;-68
2023/05/07 03:15:30;;;;;;;10.07;6.57;;;;;;;14.33;74.69;99936.41;3090864;28;20054;-69
2023/05/07 03:17:02;;;;;;;15.55;6.47;;;;;;;14.34;74.76;99946.00;3090141;28;20054;-69
2023/05/07 03:18:33;;;;;;;14.90;6.28;;;;;;;14.31;75.14;99946.13;3078186;28;20261;-67
2023/05/07 03:20:06;;;;;;;12.20;6.78;;;;;;;14.10;75.32;99915.97;3089441;28;20563;-68
2023/05/07 03:21:37;;;;;;;14.30;6.45;;;;;;;14.26;75.32;99940.34;3090064;28;20107;-68
2023/05/07 03:23:09;;;;;;;9.77;6.22;;;;;;;14.26;75.40;99950.81;3089831;28;20444;-68
2023/05/07 03:24:40;;;;;;;10.63;6.22;;;;;;;14.22;75.65;99943.22;3090123;28;20562;-68
2023/05/07 03:26:14;;;;;;;18.25;7.38;;;;;;;14.27;76.02;99949.88;3089849;28;20114;-69
2023/05/07 03:27:45;;;;;;;11.35;6.97;;;;;;;14.25;76.23;99956.13;3089914;28;20879;-69
2023/05/07 03:29:16;;;;;;;10.88;6.85;;;;;;;14.21;76.16;99947.63;3090121;28;20085;-68
2023/05/07 03:30:49;;;;;;;11.00;6.65;;;;;;;14.23;76.37;99958.03;3090029;28;20149;-68
2023/05/07 03:32:21;;;;;;;10.88;6.47;;;;;;;14.21;76.30;99955.47;3090081;28;20058;-68
2023/05/07 03:33:54;;;;;;;14.10;7.53;;;;;;;14.18;76.76;99953.03;3128789;28;20052;-68
2023/05/07 03:35:25;;;;;;;12.88;7.20;;;;;;;14.20;76.45;99953.78;3128585;28;20066;-68
2023/05/07 03:36:57;;;;;;;13.65;7.28;;;;;;;14.18;76.64;99955.66;3090011;28;20050;-68
2023/05/07 03:38:28;;;;;;;12.90;7.10;;;;;;;14.17;76.73;99960.97;3089899;28;20060;-69
2023/05/07 03:39:59;;;;;;;10.65;7.38;;;;;;;14.16;76.65;99954.88;3089804;28;20442;-69
2023/05/07 03:41:33;;;;;;;10.48;6.53;;;;;;;14.03;76.65;99936.44;3090056;28;20055;-68
2023/05/07 03:43:05;;;;;;;12.40;7.00;;;;;;;14.12;76.97;99948.16;3089786;28;20050;-68
2023/05/07 03:44:37;;;;;;;12.75;7.38;;;;;;;13.89;77.29;99913.63;3089811;28;20058;-68
2023/05/07 03:46:10;;;;;;;12.93;7.60;;;;;;;14.10;77.09;99950.00;3090004;28;20096;-68
2023/05/07 03:47:42;;;;;;;11.73;7.57;;;;;;;14.07;77.04;99947.56;3078059;28;20047;-68
2023/05/07 03:49:14;;;;;;;16.38;8.13;;;;;;;14.09;77.01;99953.56;3089373;28;20065;-68
2023/05/07 03:50:46;;;;;;;13.35;7.50;;;;;;;14.09;77.07;99961.41;3089626;28;20093;-68
2023/05/07 03:52:22;;;;;;;13.52;7.18;;;;;;;13.94;77.23;99933.50;3089883;28;20050;-69
2023/05/07 03:53:54;;;;;;;14.02;8.38;;;;;;;14.09;76.99;99958.81;3127494;28;20513;-68
2023/05/07 03:55:26;;;;;;;12.93;7.22;;;;;;;13.99;76.97;99950.63;3104678;28;20402;-68
2023/05/07 03:56:59;;;;;;;12.00;8.20;;;;;;;14.08;76.94;99962.38;3089783;28;20054;-68
2023/05/07 03:58:31;;;;;;;11.85;7.45;;;;;;;14.06;76.96;99964.22;3089665;28;20523;-70
2023/05/07 04:00:05;;;;;;;14.18;7.78;;;;;;;14.04;77.14;99955.59;3089872;28;20062;-69
2023/05/07 04:01:36;;;;;;;12.82;7.40;;;;;;;14.07;77.15;99963.28;3089629;28;20093;-69
2023/05/07 04:03:08;;;;;;;13.45;8.15;;;;;;;14.06;76.87;99964.22;3090912;28;20046;-69
2023/05/07 04:04:40;;;;;;;11.57;7.40;;;;;;;14.01;76.85;99954.00;3084889;28;20080;-69
2023/05/07 04:06:12;;;;;;;12.85;7.53;;;;;;;14.04;76.73;99955.59;3084666;28;20057;-69
2023/05/07 04:07:44;;;;;;;13.02;7.35;;;;;;;14.08;76.72;99964.97;3084664;28;20058;-69
2023/05/07 04:09:16;;;;;;;11.18;7.20;;;;;;;14.09;76.77;99962.25;3085169;28;20064;-69
2023/05/07 04:10:47;;;;;;;14.35;7.38;;;;;;;14.06;76.69;99951.97;3092161;28;20086;-68
2023/05/07 04:12:20;;;;;;;15.98;6.90;;;;;;;14.11;76.62;99964.81;3085896;28;20078;-68
2023/05/07 04:13:51;;;;;;;11.00;6.72;;;;;;;13.93;76.33;99930.03;3084630;28;20084;-69
2023/05/07 04:15:23;;;;;;;10.70;6.85;;;;;;;14.14;76.17;99961.13;3084880;28;20547;-69
2023/05/07 04:16:55;;;;;;;9.45;6.60;;;;;;;14.10;76.14;99956.06;3084608;28;20141;-69
2023/05/07 04:18:26;;;;;;;14.75;6.72;;;;;;;14.15;76.03;99965.47;3084536;28;20081;-69
2023/05/07 04:19:58;;;;;;;11.63;6.78;;;;;;;14.16;76.02;99954.03;3083942;28;20055;-69
2023/05/07 04:21:29;;;;;;;9.90;6.32;;;;;;;14.16;75.88;99960.13;3084566;28;20054;-69
2023/05/07 04:23:01;;;;;;;11.20;7.18;;;;;;;14.12;75.42;99948.16;3084477;28;20047;-69
2023/05/07 04:24:33;;;;;;;13.82;6.65;;;;;;;14.15;75.28;99961.06;3084631;28;20318;-69
2023/05/07 04:26:04;;;;;;;9.68;7.05;;;;;;;14.15;75.41;99963.69;3085468;28;20055;-69
2023/05/07 04:27:38;;;;;;;13.63;7.07;;;;;;;14.20;75.23;99966.88;3086989;28;20097;-69
2023/05/07 04:29:09;;;;;;;9.95;6.38;;;;;;;14.20;75.14;99966.88;3089776;28;20057;-69
2023/05/07 04:30:41;;;;;;;12.18;6.13;;;;;;;14.22;75.09;99970.25;3089486;28;20199;-69
2023/05/07 04:32:13;;;;;;;12.68;7.18;;;;;;;14.18;74.94;99953.03;3089277;28;20051;-68
2023/05/07 04:33:45;;;;;;;12.15;6.80;;;;;;;14.25;75.13;99967.44;3089542;28;20085;-69
2023/05/07 04:35:17;;;;;;;9.63;7.00;;;;;;;14.27;74.77;99965.59;3089479;28;20050;-69
2023/05/07 04:36:49;;;;;;;14.57;6.43;;;;;;;14.26;74.50;99969.16;3089416;28;20097;-68
2023/05/07 04:38:21;;;;;;;12.32;6.68;;;;;;;14.17;74.66;99948.75;3089413;28;20050;-69
2023/05/07 04:39:53;;;;;;;9.88;6.80;;;;;;;14.31;74.69;99967.09;3089761;28;20066;-69
2023/05/07 04:41:25;;;;;;;11.13;7.13;;;;;;;14.31;74.55;99963.63;3089258;28;20582;-68
2023/05/07 04:42:58;;;;;;;15.13;6.70;;;;;;;14.33;74.00;99965.25;3089436;28;20068;-69
2023/05/07 04:44:30;;;;;;;12.85;5.93;;;;;;;14.34;74.38;99966.06;3089406;28;20603;-69
2023/05/07 04:46:02;;;;;;;8.45;5.82;;;;;;;14.34;74.39;99964.31;3089392;28;20140;-68
2023/05/07 04:47:33;;;;;;;8.38;6.22;;;;;;;14.38;74.17;99967.59;3089423;28;20069;-68
2023/05/07 04:49:05;;;;;;;10.30;6.47;;;;;;;14.34;74.07;99951.22;3089502;28;20202;-68
2023/05/07 04:50:36;;;;;;;10.82;7.10;;;;;;;14.46;73.99;99969.75;3089098;28;20119;-69
2023/05/07 04:52:08;;;;;;;13.88;6.32;;;;;;;14.48;73.78;99967.91;3089337;28;20569;-68
2023/05/07 04:53:39;;;;;;;11.65;6.50;;;;;;;14.56;73.90;99971.78;3116869;28;20595;-68
2023/05/07 04:55:11;;;;;;;14.23;6.63;;;;;;;14.62;73.76;99965.34;3118040;28;20110;-68
2023/05/07 04:56:43;;;;;;;10.68;6.80;;;;;;;14.71;73.64;99961.34;3089156;28;20675;-69
2023/05/07 04:58:15;;;;;;;12.00;6.28;;;;;;;14.75;73.28;99961.03;3089382;28;20050;-69
2023/05/07 04:59:47;;;;;;;11.55;6.45;;;;;;;14.77;73.15;99955.72;3089014;28;20621;-69
2023/05/07 05:01:19;;;;;;;14.98;5.97;;;;;;;14.96;73.12;99973.81;3089061;28;20050;-69
2023/05/07 05:02:51;;;;;;;16.40;7.18;;;;;;;15.04;72.47;99975.97;3089117;28;20058;-69
2023/05/07 05:04:22;;;;;;;13.88;6.25;;;;;;;15.07;72.39;99971.38;3089139;28;20054;-69
2023/05/07 05:05:54;;;;;;;11.15;5.63;;;;;;;15.21;72.12;99971.38;3089083;28;20110;-69
2023/05/07 05:07:26;;;;;;;9.45;5.57;;;;;;;15.32;71.70;99969.84;3088696;28;20054;-69
2023/05/07 05:08:57;;;;;;;11.60;5.65;;;;;;;15.41;71.43;99970.16;3089252;28;20055;-69
2023/05/07 05:10:28;;;;;;;9.43;5.63;;;;;;;15.54;71.03;99972.84;3089256;28;20242;-69
2023/05/07 05:12:00;;;;;;;11.00;4.72;;;;;;;15.63;70.55;99972.25;3080231;28;20555;-69
2023/05/07 05:13:34;;;;;;;10.75;5.30;;;;;;;15.78;70.18;99970.47;3087757;28;20050;-69
2023/05/07 05:15:07;;;;;;;9.23;5.40;;;;;;;15.91;70.00;99971.38;3089395;28;20141;-68
2023/05/07 05:16:38;;;;;;;7.30;5.50;;;;;;;16.14;69.84;99979.53;3088967;28;20111;-69
2023/05/07 05:18:10;;;;;;;9.10;4.50;;;;;;;16.43;69.31;99979.41;3089127;28;20106;-69
2023/05/07 05:19:42;;;;;;;7.25;4.80;;;;;;;16.83;68.87;99977.59;3088803;28;20110;-69
2023/05/07 05:21:14;;;;;;;11.07;5.03;;;;;;;17.26;68.00;99979.88;3088980;28;20111;-69
2023/05/07 05:22:46;;;;;;;10.32;5.10;;;;;;;17.76;66.76;99983.34;3089122;28;20059;-70
2023/05/07 05:24:18;;;;;;;12.77;4.43;;;;;;;18.25;65.45;99979.81;3088990;28;20052;-69
2023/05/07 05:25:50;;;;;;;10.40;4.70;;;;;;;18.69;63.95;99982.66;3089104;28;20072;-69
2023/05/07 05:27:22;;;;;;;6.25;4.63;;;;;;;19.12;62.56;99982.88;3089218;28;20057;-69
2023/05/07 05:28:55;;;;;;;7.10;4.78;;;;;;;19.47;61.31;99980.13;3095182;28;20055;-69
2023/05/07 05:30:26;;;;;;;;;;;;;;;19.76;61.53;99982.28;3080453;28;20046;-69
2023/05/07 05:31:58;;;;;;;8.30;4.43;;;;;;;19.86;60.77;99979.72;3089190;28;19925;-69
2023/05/07 05:33:30;;;;;;;6.10;4.25;;;;;;;19.86;59.64;99985.00;3089016;28;20050;-69
2023/05/07 05:35:01;;;;;;;14.65;5.05;;;;;;;19.85;59.20;99983.34;3088787;28;20062;-69
2023/05/07 05:36:33;;;;;;;10.77;4.85;;;;;;;19.82;58.67;99981.78;3088576;28;20084;-69
2023/05/07 05:38:05;;;;;;;11.52;4.95;;;;;;;19.68;58.00;99976.75;3089218;28;20058;-69
2023/05/07 05:39:37;;;;;;;9.93;4.88;;;;;;;19.54;58.00;99978.66;3088908;28;20061;-69
2023/05/07 05:41:09;;;;;;;7.70;5.20;;;;;;;19.52;57.71;99985.00;3089094;28;20069;-69
2023/05/07 05:42:41;;;;;;;9.63;4.70;;;;;;;19.43;57.51;99983.97;3088808;28;20531;-69
2023/05/07 05:44:13;;;;;;;7.80;5.13;;;;;;;19.37;57.24;99999.44;3088809;28;20523;-69
2023/05/07 05:45:45;;;;;;;14.00;5.40;;;;;;;19.30;57.15;99994.63;3089020;28;20060;-69
2023/05/07 05:47:16;;;;;;;6.25;4.57;;;;;;;19.29;56.92;99997.41;3088937;28;20053;-70
2023/05/07 05:48:48;;;;;;;8.98;5.20;;;;;;;19.22;56.59;99991.75;3088798;28;20058;-69
2023/05/07 05:50:19;;;;;;;8.77;4.50;;;;;;;19.19;56.42;99992.00;3089027;28;20447;-69
2023/05/07 05:51:51;;;;;;;10.82;4.65;;;;;;;19.21;56.23;100005.09;3088825;28;20059;-69
2023/05/07 05:53:22;;;;;;;11.38;4.82;;;;;;;19.16;56.14;100000.16;3104331;28;20546;-69
2023/05/07 05:54:54;;;;;;;9.05;4.72;;;;;;;19.15;56.25;100001.13;3129672;28;20054;-69
2023/05/07 05:56:26;;;;;;;9.02;4.60;;;;;;;19.10;56.49;100004.09;3088866;28;20123;-69
2023/05/07 05:57:58;;;;;;;8.75;4.72;;;;;;;19.17;56.24;99998.38;3088843;28;20058;-69
2023/05/07 05:59:32;;;;;;;8.07;4.00;;;;;;;19.23;56.46;100006.66;3090595;28;20058;-69
2023/05/07 06:01:02;;;;;;;;;;;;;;;19.31;57.13;100012.19;3077388;28;20070;-67
2023/05/07 06:02:34;;;;;;;7.80;4.38;;;;;;;19.49;56.67;100006.38;3076598;28;19926;-69
2023/05/07 06:04:06;;;;;;;10.57;4.18;;;;;;;19.72;55.90;99997.50;3076582;28;20051;-69
2023/05/07 06:05:38;;;;;;;7.93;4.30;;;;;;;20.02;55.50;99998.63;3064870;28;20059;-69
2023/05/07 06:07:10;;;;;;;9.27;4.53;;;;;;;20.30;54.99;100004.31;3076305;28;20055;-70
2023/05/07 06:08:42;;;;;;;6.03;4.28;;;;;;;20.52;54.09;100003.38;3076588;28;20065;-69
2023/05/07 06:10:14;;;;;;;8.27;4.63;;;;;;;20.57;53.79;99996.75;3077311;28;20093;-69
2023/05/07 06:11:45;;;;;;;8.63;4.72;;;;;;;20.58;53.03;99976.44;3080843;28;20058;-69
2023/05/07 06:13:17;;;;;;;11.13;4.65;;;;;;;20.87;52.42;100008.38;3076788;28;20520;-67
2023/05/07 06:14:50;;;;;;;12.95;4.80;;;;;;;20.84;51.83;99993.59;3076672;28;20059;-67
2023/05/07 06:16:22;;;;;;;;;;;;;;;20.84;52.62;100009.47;3077056;28;20061;-67
2023/05/07 06:17:55;;;;;;;9.93;4.18;;;;;;;20.85;51.74;100005.88;3076550;28;19933;-68
2023/05/07 06:19:27;;;;;;;10.88;4.63;;;;;;;20.82;51.53;100006.13;3076416;28;20630;-68
2023/05/07 06:20:59;;;;;;;7.05;4.30;;;;;;;20.80;51.16;100004.59;3076559;28;20524;-68
2023/05/07 06:22:31;;;;;;;10.13;4.50;;;;;;;20.73;51.03;100001.59;3076273;28;20070;-68
2023/05/07 06:24:03;;;;;;;8.32;5.20;;;;;;;20.71;50.38;100000.06;3076522;28;20050;-68
2023/05/07 06:25:35;;;;;;;13.75;4.38;;;;;;;20.64;50.50;99997.91;3076550;28;20058;-68
2023/05/07 06:27:07;;;;;;;6.97;4.70;;;;;;;20.67;50.34;100004.75;3076357;28;20051;-68
2023/05/07 06:28:39;;;;;;;9.55;4.95;;;;;;;20.65;50.40;100004.06;3076162;28;20058;-68
2023/05/07 06:30:13;;;;;;;8.90;5.32;;;;;;;20.52;49.95;99991.00;3076595;28;20050;-68
2023/05/07 06:31:45;;;;;;;8.90;5.43;;;;;;;20.45;50.06;100003.06;3076377;28;20059;-68
2023/05/07 06:33:16;;;;;;;13.95;5.20;;;;;;;20.37;49.85;99998.38;3076540;28;20061;-68
2023/05/07 06:34:48;;;;;;;9.48;4.82;;;;;;;20.35;50.55;99995.03;3076449;28;20051;-68
2023/05/07 06:36:20;;;;;;;8.73;4.03;;;;;;;20.37;50.18;99993.09;3076425;28;20125;-69
2023/05/07 06:37:52;;;;;;;11.88;4.47;;;;;;;20.45;50.55;99995.13;3076361;28;20452;-69
2023/05/07 06:39:24;;;;;;;6.13;4.68;;;;;;;20.52;50.18;99990.13;3076150;28;20055;-69
2023/05/07 06:40:57;;;;;;;6.60;4.72;;;;;;;20.59;50.15;99994.84;3076434;28;20632;-69
2023/05/07 06:42:28;;;;;;;11.80;4.00;;;;;;;20.62;49.67;99991.94;3076483;28;20090;-69
2023/05/07 06:43:59;;;;;;;12.35;4.80;;;;;;;20.70;49.65;99995.72;3076248;28;20085;-69
2023/05/07 06:45:32;;;;;;;9.18;4.97;;;;;;;20.75;49.20;99993.53;3076566;28;20142;-70
2023/05/07 06:47:05;;;;;;;7.65;4.88;;;;;;;20.75;48.89;100002.31;3076584;28;20055;-69
2023/05/07 06:48:36;;;;;;;11.82;4.63;;;;;;;20.71;48.96;99997.44;3076913;28;20093;-69
2023/05/07 06:50:09;;;;;;;9.20;4.57;;;;;;;20.67;48.75;100002.97;3078170;28;20535;-69
2023/05/07 06:51:41;;;;;;;9.02;5.32;;;;;;;20.63;48.78;100001.53;3078121;28;20127;-69
2023/05/07 06:53:13;;;;;;;11.70;4.85;;;;;;;20.61;48.83;99995.53;3087281;28;20046;-69
2023/05/07 06:54:45;;;;;;;7.90;4.40;;;;;;;20.61;49.06;99992.88;3121282;28;20229;-69
2023/05/07 06:56:17;;;;;;;9.05;4.47;;;;;;;20.65;49.38;99996.97;3078333;28;20058;-69
2023/05/07 06:57:48;;;;;;;7.22;4.20;;;;;;;20.76;48.96;99997.84;3078461;28;20534;-69
2023/05/07 06:59:20;;;;;;;8.02;4.75;;;;;;;20.82;49.05;100006.13;3078303;28;20074;-69
2023/05/07 07:00:54;;;;;;;8.80;4.18;;;;;;;20.89;49.00;100001.16;3088320;28;20058;-69
2023/05/07 07:02:25;;;;;;;;;;;;;;;20.84;49.10;100000.69;3090900;28;20098;-69
2023/05/07 07:03:57;;;;;;;9.07;4.40;;;;;;;20.89;49.20;100001.16;3090332;28;19945;-69
2023/05/07 07:05:29;;;;;;;10.77;4.68;;;;;;;21.00;48.82;99998.44;3090376;28;20120;-69
2023/05/07 07:07:01;;;;;;;11.50;4.85;;;;;;;21.01;48.12;99984.22;3090563;28;20107;-69
2023/05/07 07:08:33;;;;;;;9.10;4.70;;;;;;;21.17;48.18;99991.66;3089981;28;20803;-68
2023/05/07 07:10:05;;;;;;;11.45;4.53;;;;;;;21.30;48.32;99991.47;3090304;28;20054;-68
2023/05/07 07:11:37;;;;;;;6.82;4.63;;;;;;;21.43;48.28;99991.25;3084817;28;20054;-69